createdAt,value
2023-01-18T00:01:43.728Z,-2.47
2023-01-18T00:04:10.138Z,-2.48
2023-01-18T00:06:36.550Z,-2.47
2023-01-18T00:09:03.130Z,-2.48
2023-01-18T00:11:29.574Z,-2.50
2023-01-18T00:13:56.746Z,-2.53
2023-01-18T00:16:23.369Z,-2.56
2023-01-18T00:18:52.521Z,-2.60
2023-01-18T00:21:18.931Z,-2.60
2023-01-18T00:23:45.401Z,-2.66
2023-01-18T00:26:12.800Z,-2.67
2023-01-18T00:28:40.156Z,-2.67
2023-01-18T00:31:17.992Z,-2.66
2023-01-18T00:33:46.028Z,-2.69
2023-01-18T00:36:13.923Z,-2.70
2023-01-18T00:38:40.553Z,-2.70
2023-01-18T00:41:07.064Z,-2.72
2023-01-18T00:43:39.538Z,-2.70
2023-01-18T00:46:10.128Z,-2.71
2023-01-18T00:48:38.321Z,-2.71
2023-01-18T00:51:05.083Z,-2.72
2023-01-18T00:53:32.522Z,-2.73
2023-01-18T00:55:59.146Z,-2.75
2023-01-18T00:58:25.715Z,-2.77
2023-01-18T01:00:53.009Z,-2.78
2023-01-18T01:03:22.663Z,-2.80
2023-01-18T01:06:07.969Z,-2.80
2023-01-18T01:08:34.594Z,-2.81
2023-01-18T01:11:09.219Z,-2.83
2023-01-18T01:13:55.446Z,-2.83
2023-01-18T01:16:41.107Z,-2.85
2023-01-18T01:19:26.616Z,-2.95
2023-01-18T01:22:11.607Z,-3.00
2023-01-18T01:24:57.545Z,-3.06
2023-01-18T01:27:23.957Z,-3.13
2023-01-18T01:29:52.577Z,-3.19
2023-01-18T01:32:19.024Z,-3.23
2023-01-18T01:34:45.384Z,-3.25
2023-01-18T01:37:11.756Z,-3.22
2023-01-18T01:39:38.136Z,-3.28
2023-01-18T01:42:04.516Z,-3.30
2023-01-18T01:44:34.173Z,-3.36
2023-01-18T01:47:07.808Z,-3.41
2023-01-18T01:49:39.978Z,-3.42
2023-01-18T01:52:09.286Z,-3.42
2023-01-18T01:54:50.201Z,-3.41
2023-01-18T01:57:22.803Z,-3.41
2023-01-18T01:59:57.217Z,-3.42
2023-01-18T02:02:23.800Z,-3.41
2023-01-18T02:04:54.224Z,-3.39
2023-01-18T02:07:26.319Z,-3.39
2023-01-18T02:09:53.622Z,-3.38
2023-01-18T02:12:20.349Z,-3.37
2023-01-18T02:14:47.598Z,-3.36
2023-01-18T02:17:32.741Z,-3.37
2023-01-18T02:20:40.973Z,-3.33
2023-01-18T02:23:22.157Z,-3.31
2023-01-18T02:26:07.024Z,-3.32
2023-01-18T02:28:36.464Z,-3.30
2023-01-18T02:31:18.931Z,-3.31
2023-01-18T02:33:53.898Z,-3.32
2023-01-18T02:36:49.912Z,-3.33
2023-01-18T02:39:38.194Z,-3.40
2023-01-18T02:42:36.257Z,-3.49
2023-01-18T02:45:26.075Z,-3.49
2023-01-18T02:47:53.965Z,-3.46
2023-01-18T02:50:23.465Z,-3.38
2023-01-18T02:52:52.040Z,-3.33
2023-01-18T02:55:46.096Z,-3.33
2023-01-18T02:58:27.544Z,-3.37
2023-01-18T03:01:10.756Z,-3.37
2023-01-18T03:03:40.532Z,-3.34
2023-01-18T03:06:08.545Z,-3.28
2023-01-18T03:08:41.537Z,-3.22
2023-01-18T03:11:16.404Z,-3.19
2023-01-18T03:14:11.172Z,-3.20
2023-01-18T03:17:05.511Z,-3.31
2023-01-18T03:19:58.220Z,-3.37
2023-01-18T03:22:46.112Z,-3.35
2023-01-18T03:25:17.526Z,-3.31
2023-01-18T03:28:05.876Z,-3.27
2023-01-18T03:30:53.258Z,-3.38
2023-01-18T03:33:46.203Z,-3.42
2023-01-18T03:36:16.865Z,-3.42
2023-01-18T03:38:47.277Z,-3.37
2023-01-18T03:41:16.105Z,-3.31
2023-01-18T03:43:43.497Z,-3.28
2023-01-18T03:46:09.992Z,-3.29
2023-01-18T03:48:37.027Z,-3.31
2023-01-18T03:51:27.701Z,-3.27
2023-01-18T03:54:16.006Z,-3.25
2023-01-18T03:56:50.653Z,-3.22
2023-01-18T03:59:17.439Z,-3.24
2023-01-18T04:01:48.112Z,-3.22
2023-01-18T04:04:14.857Z,-3.28
2023-01-18T04:06:41.314Z,-3.39
2023-01-18T04:09:08.320Z,-3.43
2023-01-18T04:11:34.706Z,-3.45
2023-01-18T04:14:01.176Z,-3.45
2023-01-18T04:16:27.563Z,-3.45
2023-01-18T04:18:54.131Z,-3.47
2023-01-18T04:21:20.622Z,-3.49
2023-01-18T04:23:47.062Z,-3.50
2023-01-18T04:26:15.354Z,-3.49
2023-01-18T04:28:42.002Z,-3.44
2023-01-18T04:31:08.968Z,-3.42
2023-01-18T04:33:35.383Z,-3.38
2023-01-18T04:36:01.799Z,-3.33
2023-01-18T04:38:28.351Z,-3.32
2023-01-18T04:40:54.840Z,-3.27
2023-01-18T04:43:21.248Z,-3.24
2023-01-18T04:45:55.372Z,-3.22
2023-01-18T04:48:22.437Z,-3.19
2023-01-18T04:50:49.007Z,-3.16
2023-01-18T04:53:16.807Z,-3.14
2023-01-18T04:55:44.300Z,-3.12
2023-01-18T04:58:10.930Z,-3.14
2023-01-18T05:00:40.909Z,-3.12
2023-01-18T05:03:08.740Z,-3.11
2023-01-18T05:05:35.110Z,-3.07
2023-01-18T05:08:01.581Z,-3.02
2023-01-18T05:10:28.309Z,-3.00
2023-01-18T05:12:54.685Z,-3.03
2023-01-18T05:15:21.148Z,-3.04
2023-01-18T05:17:47.601Z,-3.04
2023-01-18T05:20:14.002Z,-3.04
2023-01-18T05:22:40.474Z,-3.09
2023-01-18T05:25:07.175Z,-3.08
2023-01-18T05:27:33.789Z,-3.10
2023-01-18T05:30:01.927Z,-3.07
2023-01-18T05:32:28.397Z,-3.09
2023-01-18T05:34:54.820Z,-3.11
2023-01-18T05:37:21.277Z,-3.08
2023-01-18T05:39:47.892Z,-3.10
2023-01-18T05:42:14.306Z,-3.08
2023-01-18T05:44:40.934Z,-3.08
2023-01-18T05:47:07.388Z,-3.06
2023-01-18T05:49:33.799Z,-3.06
2023-01-18T05:52:00.209Z,-3.08
2023-01-18T05:54:26.620Z,-3.05
2023-01-18T05:56:53.124Z,-3.03
2023-01-18T05:59:19.485Z,-3.05
2023-01-18T06:01:46.011Z,-3.04
2023-01-18T06:04:14.712Z,-3.05
2023-01-18T06:06:41.152Z,-3.08
2023-01-18T06:09:07.761Z,-3.10
2023-01-18T06:11:34.240Z,-3.09
2023-01-18T06:14:00.743Z,-3.09
2023-01-18T06:16:27.207Z,-3.09
2023-01-18T06:18:53.678Z,-3.11
2023-01-18T06:21:20.224Z,-3.09
2023-01-18T06:23:46.685Z,-3.10
2023-01-18T06:26:13.166Z,-3.10
2023-01-18T06:28:39.571Z,-3.08
2023-01-18T06:31:08.236Z,-3.05
2023-01-18T06:33:35.039Z,-3.05
2023-01-18T06:36:01.701Z,-3.03
2023-01-18T06:38:29.749Z,-2.96
2023-01-18T06:40:56.431Z,-2.90
2023-01-18T06:43:23.048Z,-2.81
2023-01-18T06:45:54.054Z,-2.79
2023-01-18T06:48:21.942Z,-2.76
2023-01-18T06:50:49.041Z,-2.73
2023-01-18T06:53:15.566Z,-2.72
2023-01-18T06:55:41.970Z,-2.71
2023-01-18T06:58:08.400Z,-2.71
2023-01-18T07:00:34.979Z,-2.70
2023-01-18T07:03:01.421Z,-2.69
2023-01-18T07:05:27.892Z,-2.69
2023-01-18T07:07:54.235Z,-2.71
2023-01-18T07:10:20.655Z,-2.71
2023-01-18T07:12:48.927Z,-2.72
2023-01-18T07:15:21.902Z,-2.71
2023-01-18T07:17:50.436Z,-2.74
2023-01-18T07:20:17.501Z,-2.74
2023-01-18T07:22:43.928Z,-2.74
2023-01-18T07:25:13.289Z,-2.73
2023-01-18T07:27:43.169Z,-2.74
2023-01-18T07:30:12.376Z,-2.72
2023-01-18T07:32:39.353Z,-2.70
2023-01-18T07:35:06.079Z,-2.68
2023-01-18T07:37:34.176Z,-2.66
2023-01-18T07:40:00.618Z,-2.65
2023-01-18T07:42:27.031Z,-2.65
2023-01-18T07:44:53.393Z,-2.64
2023-01-18T07:47:19.861Z,-2.63
2023-01-18T07:49:46.323Z,-2.65
2023-01-18T07:52:12.727Z,-2.65
2023-01-18T07:54:39.336Z,-2.62
2023-01-18T07:57:05.976Z,-2.62
2023-01-18T07:59:33.379Z,-2.59
2023-01-18T08:01:59.862Z,-2.57
2023-01-18T08:04:26.303Z,-2.54
2023-01-18T08:06:52.697Z,-2.51
2023-01-18T08:09:19.041Z,-2.47
2023-01-18T08:11:45.531Z,-2.45
2023-01-18T08:14:12.310Z,-2.38
2023-01-18T08:16:38.692Z,-2.36
2023-01-18T08:19:05.023Z,-2.36
2023-01-18T08:21:31.942Z,-2.35
2023-01-18T08:23:58.357Z,-2.36
2023-01-18T08:26:24.943Z,-2.32
2023-01-18T08:28:51.421Z,-2.29
2023-01-18T08:31:19.960Z,-2.22
2023-01-18T08:33:48.656Z,-2.12
2023-01-18T08:36:20.752Z,-2.02
2023-01-18T08:38:52.478Z,-1.87
2023-01-18T08:41:20.130Z,-1.73
2023-01-18T08:43:50.719Z,-1.60
2023-01-18T08:46:17.396Z,-1.53
2023-01-18T08:48:43.917Z,-1.44
2023-01-18T08:51:10.576Z,-1.38
2023-01-18T08:53:36.998Z,-1.29
2023-01-18T08:56:06.341Z,-1.23
2023-01-18T08:58:33.363Z,-1.20
2023-01-18T09:00:59.733Z,-1.16
2023-01-18T09:03:26.188Z,-1.10
2023-01-18T09:05:52.677Z,-1.08
2023-01-18T09:08:19.160Z,-1.01
2023-01-18T09:10:45.633Z,-0.96
2023-01-18T09:13:12.357Z,-0.90
2023-01-18T09:15:39.108Z,-0.83
2023-01-18T09:18:07.595Z,-0.77
2023-01-18T09:20:36.129Z,-0.68
2023-01-18T09:23:10.320Z,-0.59
2023-01-18T09:25:37.438Z,-0.55
2023-01-18T09:28:05.430Z,-0.43
2023-01-18T09:30:32.398Z,-0.32
2023-01-18T09:32:59.104Z,-0.23
2023-01-18T09:35:25.751Z,-0.15
2023-01-18T09:37:52.266Z,-0.05
2023-01-18T09:40:20.904Z,0.04
2023-01-18T09:42:51.530Z,0.12
2023-01-18T09:45:28.072Z,0.23
2023-01-18T09:48:01.123Z,0.33
2023-01-18T09:50:27.789Z,0.45
2023-01-18T09:53:02.743Z,0.53
2023-01-18T09:55:56.922Z,0.65
2023-01-18T09:58:42.654Z,0.74
2023-01-18T10:01:17.051Z,0.82
2023-01-18T10:04:21.316Z,0.93
2023-01-18T10:06:49.457Z,1.03
2023-01-18T10:09:21.025Z,1.14
2023-01-18T10:11:59.632Z,1.24
2023-01-18T10:14:43.007Z,1.27
2023-01-18T10:17:17.743Z,1.38
2023-01-18T10:19:44.691Z,1.46
2023-01-18T10:22:20.268Z,1.52
2023-01-18T10:25:02.045Z,1.61
2023-01-18T10:27:43.607Z,1.63
2023-01-18T10:30:16.170Z,1.66
2023-01-18T10:32:55.462Z,1.75
2023-01-18T10:35:30.761Z,1.85
2023-01-18T10:38:02.366Z,1.82
2023-01-18T10:40:28.837Z,1.90
2023-01-18T10:43:00.852Z,1.94
2023-01-18T10:45:29.998Z,1.98
2023-01-18T10:47:58.429Z,2.15
2023-01-18T10:50:37.549Z,2.19
2023-01-18T10:53:26.291Z,2.40
2023-01-18T10:56:02.065Z,2.43
2023-01-18T10:58:33.035Z,2.51
2023-01-18T11:01:01.965Z,2.58
2023-01-18T11:03:31.990Z,2.70
2023-01-18T11:06:05.343Z,2.61
2023-01-18T11:08:34.270Z,2.69
2023-01-18T11:11:16.956Z,2.82
2023-01-18T11:13:45.823Z,2.79
2023-01-18T11:16:21.337Z,2.90
2023-01-18T11:18:59.928Z,3.05
2023-01-18T11:21:41.171Z,3.18
2023-01-18T11:24:14.282Z,3.27
2023-01-18T11:26:54.201Z,3.26
2023-01-18T11:29:23.794Z,3.28
2023-01-18T11:31:52.896Z,3.21
2023-01-18T11:34:37.448Z,3.28
2023-01-18T11:37:04.988Z,3.38
2023-01-18T11:39:36.504Z,3.41
2023-01-18T11:42:13.776Z,3.68
2023-01-18T11:44:48.264Z,3.70
2023-01-18T11:47:27.402Z,3.62
2023-01-18T11:50:16.931Z,3.82
2023-01-18T11:52:56.704Z,3.92
2023-01-18T11:55:33.622Z,3.91
2023-01-18T11:58:00.741Z,4.02
2023-01-18T12:00:37.303Z,4.01
2023-01-18T12:03:34.351Z,4.03
2023-01-18T12:06:17.854Z,4.15
2023-01-18T12:09:14.351Z,4.28
2023-01-18T12:11:51.060Z,4.29
2023-01-18T12:14:20.472Z,4.29
2023-01-18T12:17:05.528Z,4.34
2023-01-18T12:19:37.829Z,4.33
2023-01-18T12:22:22.789Z,4.30
2023-01-18T12:25:11.164Z,4.39
2023-01-18T12:27:50.472Z,4.51
2023-01-18T12:30:22.958Z,4.52
2023-01-18T12:33:04.796Z,4.38
2023-01-18T12:35:42.770Z,4.26
2023-01-18T12:38:23.518Z,4.40
2023-01-18T12:41:18.993Z,4.50
2023-01-18T12:44:10.547Z,4.51
2023-01-18T12:46:51.842Z,4.53
2023-01-18T12:49:21.411Z,4.49
2023-01-18T12:51:52.964Z,4.59
2023-01-18T12:54:25.390Z,4.57
2023-01-18T12:56:54.770Z,4.53
2023-01-18T12:59:28.620Z,4.62
2023-01-18T13:02:02.655Z,4.69
2023-01-18T13:04:44.885Z,4.50
2023-01-18T13:07:14.358Z,4.43
2023-01-18T13:09:45.834Z,4.57
2023-01-18T13:12:13.455Z,4.60
2023-01-18T13:14:48.087Z,4.67
2023-01-18T13:17:28.620Z,4.89
2023-01-18T13:20:01.745Z,5.03
2023-01-18T13:22:55.025Z,4.91
2023-01-18T13:25:27.356Z,4.87
2023-01-18T13:28:00.962Z,4.74
2023-01-18T13:30:31.346Z,4.94
2023-01-18T13:32:58.413Z,4.94
2023-01-18T13:35:33.415Z,4.70
2023-01-18T13:38:02.342Z,4.50
2023-01-18T13:40:51.901Z,4.35
2023-01-18T13:43:30.518Z,4.24
2023-01-18T13:46:06.338Z,4.04
2023-01-18T13:48:46.355Z,3.90
2023-01-18T13:51:42.626Z,3.88
2023-01-18T13:54:15.207Z,3.87
2023-01-18T13:57:01.583Z,3.85
2023-01-18T13:59:33.740Z,3.89
2023-01-18T14:02:22.074Z,3.86
2023-01-18T14:05:08.629Z,3.77
2023-01-18T14:07:43.067Z,3.67
2023-01-18T14:10:27.800Z,3.73
2023-01-18T14:12:56.782Z,3.71
2023-01-18T14:15:30.531Z,3.74
2023-01-18T14:17:59.332Z,3.75
2023-01-18T14:20:46.736Z,3.66
2023-01-18T14:23:25.331Z,3.61
2023-01-18T14:26:01.298Z,3.65
2023-01-18T14:28:50.840Z,3.63
2023-01-18T14:31:25.988Z,3.62
2023-01-18T14:33:52.490Z,3.54
2023-01-18T14:36:21.681Z,3.54
2023-01-18T14:39:06.682Z,3.52
2023-01-18T14:41:33.251Z,3.51
2023-01-18T14:43:59.660Z,3.55
2023-01-18T14:46:27.111Z,3.49
2023-01-18T14:48:57.765Z,3.44
2023-01-18T14:51:28.138Z,3.40
2023-01-18T14:53:58.172Z,3.35
2023-01-18T14:56:30.192Z,3.27
2023-01-18T14:58:59.221Z,3.23
2023-01-18T15:01:37.906Z,3.20
2023-01-18T15:04:16.935Z,3.17
2023-01-18T15:06:48.661Z,3.13
2023-01-18T15:09:15.857Z,3.10
2023-01-18T15:11:44.258Z,3.10
2023-01-18T15:14:17.691Z,3.05
2023-01-18T15:16:46.749Z,3.05
2023-01-18T15:19:20.512Z,3.00
2023-01-18T15:21:47.112Z,2.98
2023-01-18T15:24:17.549Z,2.98
2023-01-18T15:26:56.114Z,2.95
2023-01-18T15:29:26.538Z,2.92
2023-01-18T15:31:57.753Z,2.89
2023-01-18T15:34:37.097Z,2.88
2023-01-18T15:37:12.878Z,2.84
2023-01-18T15:39:56.771Z,2.81
2023-01-18T15:42:29.564Z,2.80
2023-01-18T15:44:58.273Z,2.80
2023-01-18T15:47:27.928Z,2.77
2023-01-18T15:50:00.369Z,2.77
2023-01-18T15:52:43.969Z,2.73
2023-01-18T15:55:30.229Z,2.72
2023-01-18T15:58:07.036Z,2.72
2023-01-18T16:00:43.273Z,2.71
2023-01-18T16:03:34.051Z,2.71
2023-01-18T16:06:16.727Z,2.69
2023-01-18T16:08:56.756Z,2.69
2023-01-18T16:11:32.586Z,2.67
2023-01-18T16:14:01.850Z,2.66
2023-01-18T16:16:29.325Z,2.64
2023-01-18T16:19:25.673Z,2.65
2023-01-18T16:22:04.855Z,2.66
2023-01-18T16:24:51.810Z,2.66
2023-01-18T16:27:21.287Z,2.68
2023-01-18T16:29:50.996Z,2.69
2023-01-18T16:32:29.325Z,2.68
2023-01-18T16:35:18.245Z,2.65
2023-01-18T16:37:45.148Z,2.63
2023-01-18T16:40:17.021Z,2.63
2023-01-18T16:43:07.937Z,2.62
2023-01-18T16:45:37.069Z,2.61
2023-01-18T16:48:04.805Z,2.60
2023-01-18T16:50:31.752Z,2.58
2023-01-18T16:52:58.368Z,2.57
2023-01-18T16:55:24.784Z,2.57
2023-01-18T16:57:51.864Z,2.56
2023-01-18T17:00:21.499Z,2.55
2023-01-18T17:02:48.095Z,2.56
2023-01-18T17:05:15.976Z,2.57
2023-01-18T17:07:42.996Z,2.55
2023-01-18T17:10:18.726Z,2.55
2023-01-18T17:12:45.144Z,2.56
2023-01-18T17:15:12.548Z,2.56
2023-01-18T17:17:40.297Z,2.55
2023-01-18T17:20:27.929Z,2.54
2023-01-18T17:22:55.694Z,2.54
2023-01-18T17:25:23.749Z,2.52
2023-01-18T17:27:50.731Z,2.53
2023-01-18T17:30:20.397Z,2.54
2023-01-18T17:32:47.010Z,2.54
2023-01-18T17:35:14.407Z,2.54
2023-01-18T17:37:40.818Z,2.55
2023-01-18T17:40:17.104Z,2.55
2023-01-18T17:42:49.309Z,2.54
2023-01-18T17:45:15.644Z,2.52
2023-01-18T17:47:43.232Z,2.51
2023-01-18T17:50:12.540Z,2.48
2023-01-18T17:52:40.505Z,2.46
2023-01-18T17:55:10.377Z,2.45
2023-01-18T17:57:36.975Z,2.44
2023-01-18T18:00:04.444Z,2.45
2023-01-18T18:02:31.065Z,2.47
2023-01-18T18:04:59.208Z,2.47
2023-01-18T18:07:25.849Z,2.43
2023-01-18T18:09:56.641Z,2.42
2023-01-18T18:12:23.684Z,2.37
2023-01-18T18:14:53.162Z,2.36
2023-01-18T18:17:19.934Z,2.34
2023-01-18T18:19:46.350Z,2.33
2023-01-18T18:22:12.743Z,2.31
2023-01-18T18:24:39.727Z,2.28
2023-01-18T18:27:06.715Z,2.25
2023-01-18T18:29:34.137Z,2.22
2023-01-18T18:32:00.542Z,2.19
2023-01-18T18:34:27.070Z,2.15
2023-01-18T18:36:53.760Z,2.11
2023-01-18T18:39:20.193Z,2.09
2023-01-18T18:41:48.097Z,2.10
2023-01-18T18:44:14.999Z,2.12
2023-01-18T18:46:41.573Z,2.08
2023-01-18T18:49:08.365Z,2.05
2023-01-18T18:51:37.642Z,2.02
2023-01-18T18:54:04.937Z,1.98
2023-01-18T18:56:31.913Z,1.99
2023-01-18T18:58:58.333Z,1.97
2023-01-18T19:01:27.129Z,1.97
2023-01-18T19:03:53.715Z,1.95
2023-01-18T19:06:21.824Z,1.94
2023-01-18T19:08:48.633Z,1.92
2023-01-18T19:11:15.803Z,1.91
2023-01-18T19:13:43.008Z,1.92
2023-01-18T19:16:09.854Z,1.89
2023-01-18T19:18:36.695Z,1.86
2023-01-18T19:21:03.361Z,1.86
2023-01-18T19:23:29.846Z,1.83
2023-01-18T19:25:56.306Z,1.80
2023-01-18T19:28:22.772Z,1.80
2023-01-18T19:30:49.319Z,1.77
2023-01-18T19:33:15.996Z,1.77
2023-01-18T19:35:45.733Z,1.77
2023-01-18T19:38:13.047Z,1.81
2023-01-18T19:40:39.526Z,1.83
2023-01-18T19:43:06.117Z,1.88
2023-01-18T19:45:32.797Z,1.91
2023-01-18T19:48:00.570Z,1.92
2023-01-18T19:50:28.791Z,1.93
2023-01-18T19:52:55.532Z,1.92
2023-01-18T19:55:22.062Z,1.90
2023-01-18T19:57:52.113Z,1.90
2023-01-18T20:00:18.999Z,1.89
2023-01-18T20:02:45.457Z,1.90
2023-01-18T20:05:11.961Z,1.88
2023-01-18T20:07:39.324Z,1.87
2023-01-18T20:10:07.202Z,1.84
2023-01-18T20:12:33.756Z,1.84
2023-01-18T20:15:00.192Z,1.81
2023-01-18T20:17:26.549Z,1.80
2023-01-18T20:19:54.059Z,1.79
2023-01-18T20:22:21.914Z,1.78
2023-01-18T20:24:48.362Z,1.72
2023-01-18T20:27:16.863Z,1.67
2023-01-18T20:29:43.948Z,1.65
2023-01-18T20:32:16.703Z,1.61
2023-01-18T20:34:44.578Z,1.59
2023-01-18T20:37:15.064Z,1.59
2023-01-18T20:39:41.883Z,1.58
2023-01-18T20:42:08.674Z,1.59
2023-01-18T20:44:35.788Z,1.58
2023-01-18T20:47:02.211Z,1.54
2023-01-18T20:49:43.726Z,1.52
2023-01-18T20:52:10.195Z,1.49
2023-01-18T20:54:37.671Z,1.48
2023-01-18T20:57:07.221Z,1.47
2023-01-18T20:59:33.699Z,1.49
2023-01-18T21:02:00.366Z,1.49
2023-01-18T21:04:27.023Z,1.50
2023-01-18T21:06:53.476Z,1.55
2023-01-18T21:09:19.923Z,1.55
2023-01-18T21:11:46.321Z,1.57
2023-01-18T21:14:12.730Z,1.60
2023-01-18T21:16:39.264Z,1.62
2023-01-18T21:19:05.669Z,1.64
2023-01-18T21:21:32.131Z,1.67
2023-01-18T21:23:59.648Z,1.67
2023-01-18T21:26:26.383Z,1.69
2023-01-18T21:28:53.009Z,1.69
2023-01-18T21:31:19.718Z,1.68
2023-01-18T21:33:46.326Z,1.71
2023-01-18T21:36:14.969Z,1.71
2023-01-18T21:38:41.810Z,1.71
2023-01-18T21:41:26.821Z,1.74
2023-01-18T21:44:12.710Z,1.74
2023-01-18T21:46:44.837Z,1.75
2023-01-18T21:49:41.142Z,1.74
2023-01-18T21:52:32.159Z,1.66
2023-01-18T21:54:58.542Z,1.55
2023-01-18T21:57:24.946Z,1.51
2023-01-18T21:59:51.380Z,1.46
2023-01-18T22:02:17.881Z,1.34
2023-01-18T22:04:56.638Z,1.28
2023-01-18T22:07:23.217Z,1.13
2023-01-18T22:10:03.407Z,1.07
2023-01-18T22:12:32.547Z,0.99
2023-01-18T22:15:01.328Z,0.91
2023-01-18T22:17:27.763Z,0.90
2023-01-18T22:19:54.315Z,0.83
2023-01-18T22:22:20.776Z,0.72
2023-01-18T22:24:47.157Z,0.64
2023-01-18T22:27:13.500Z,0.55
2023-01-18T22:29:39.826Z,0.54
2023-01-18T22:32:06.273Z,0.50
2023-01-18T22:34:32.630Z,0.50
2023-01-18T22:36:59.140Z,0.47
2023-01-18T22:39:25.581Z,0.44
2023-01-18T22:41:51.962Z,0.47
2023-01-18T22:44:18.316Z,0.48
2023-01-18T22:46:44.749Z,0.49
2023-01-18T22:49:11.156Z,0.47
2023-01-18T22:51:37.613Z,0.48
2023-01-18T22:54:04.149Z,0.49
2023-01-18T22:56:30.725Z,0.47
2023-01-18T22:58:57.219Z,0.45
2023-01-18T23:01:30.853Z,0.48
2023-01-18T23:04:00.624Z,0.48
2023-01-18T23:06:28.916Z,0.49
2023-01-18T23:08:56.348Z,0.50
2023-01-18T23:11:25.988Z,0.54
2023-01-18T23:14:35.058Z,0.57
2023-01-18T23:17:30.680Z,0.59
2023-01-18T23:19:57.141Z,0.63
2023-01-18T23:22:23.547Z,0.67
2023-01-18T23:24:49.885Z,0.72
2023-01-18T23:27:16.361Z,0.76
2023-01-18T23:29:42.798Z,0.82
2023-01-18T23:32:09.223Z,0.87
2023-01-18T23:34:35.624Z,0.91
2023-01-18T23:37:02.039Z,0.97
2023-01-18T23:39:47.117Z,1.01
2023-01-18T23:42:32.007Z,1.06
2023-01-18T23:45:16.743Z,1.11
2023-01-18T23:48:02.032Z,1.13
2023-01-18T23:50:47.278Z,1.18
2023-01-18T23:53:32.591Z,1.24
2023-01-18T23:55:59.750Z,1.28
2023-01-18T23:58:26.718Z,1.30
